Terminal Aerodrome Forecast
Issued by NWS Cleveland, OH

Home | Current Version | Previous Version | Graphics & Text | Print | Product List | Glossary On
Versions: 1 2 3 4 5 6 7 8 9 10 11 12 13 14 15 16 17
000
FTUS41 KCLE 201900 AAA
TAFCAK
TAF AMD
KCAK 201947Z 2020/2118 VRB04KT P6SM BKN035
     FM210100 00000KT P6SM SCT250
     FM210700 00000KT 4SM BR SCT250
     FM210900 00000KT 1SM BR SCT250
     FM211400 00000KT P6SM SCT030=

USA.gov is the U.S. government's official web portal to all federal, state and local government web resources and services.